Time;durP1;ratioP1;P1;durP2;ratioP2;P2;SDS_P1;SDS_P2;PMS_P1;PMS_P2;Temp;Humidity;BMP_temperature;BMP_pressure;BME280_temperature;BME280_humidity;BME280_pressure;Samples;Min_cycle;Max_cycle;Signal;HPM_P1;HPM_P2
2022/04/09 00:00:07;;;;;;;14.85;3.28;;;4.00;99.90;;;;;;6240117;22;20019;-76
2022/04/09 00:02:33;;;;;;;11.13;2.95;;;4.10;99.90;;;;;;6214903;22;20016;-74
2022/04/09 00:04:59;;;;;;;9.75;2.55;;;4.00;99.90;;;;;;6240299;22;20015;-74
2022/04/09 00:07:24;;;;;;;15.27;2.70;;;4.00;99.90;;;;;;6240032;22;20060;-75
2022/04/09 00:09:50;;;;;;;13.88;3.80;;;4.00;99.90;;;;;;6214219;22;20015;-74
2022/04/09 00:12:16;;;;;;;11.10;2.83;;;4.00;99.90;;;;;;6240477;22;20016;-74
2022/04/09 00:14:41;;;;;;;15.93;2.55;;;4.00;99.90;;;;;;6241165;22;20011;-74
2022/04/09 00:17:09;;;;;;;12.57;2.97;;;4.00;99.90;;;;;;6240513;22;20022;-74
2022/04/09 00:19:38;;;;;;;16.38;3.30;;;4.00;99.90;;;;;;6240102;22;20148;-74
2022/04/09 00:22:04;;;;;;;14.50;3.05;;;4.00;99.90;;;;;;6240106;22;20047;-75
2022/04/09 00:24:30;;;;;;;13.25;3.75;;;4.00;99.90;;;;;;6267704;22;20088;-74
2022/04/09 00:26:55;;;;;;;17.45;3.42;;;4.10;99.90;;;;;;6215778;22;20016;-75
2022/04/09 00:29:21;;;;;;;20.00;2.92;;;4.10;99.90;;;;;;6240783;22;20012;-74
2022/04/09 00:31:47;;;;;;;16.10;2.72;;;4.20;99.90;;;;;;6239705;22;20007;-75
2022/04/09 00:34:13;;;;;;;15.55;2.63;;;4.20;99.90;;;;;;6240475;22;20035;-74
2022/04/09 00:36:38;;;;;;;15.50;2.63;;;4.30;99.90;;;;;;6214992;22;20324;-74
2022/04/09 00:39:04;;;;;;;13.80;2.67;;;4.30;99.90;;;;;;6215024;22;20019;-75
2022/04/09 00:41:30;;;;;;;15.52;3.10;;;4.20;99.90;;;;;;6240166;22;20050;-74
2022/04/09 00:43:56;;;;;;;15.23;3.97;;;4.20;99.90;;;;;;6214590;22;20016;-75
2022/04/09 00:46:22;;;;;;;11.75;2.63;;;4.20;99.90;;;;;;6240570;22;20023;-74
2022/04/09 00:48:48;;;;;;;15.05;2.80;;;4.10;99.90;;;;;;6240752;22;20015;-74
2022/04/09 00:51:13;;;;;;;15.80;2.78;;;4.00;99.90;;;;;;6214681;22;20050;-74
2022/04/09 00:53:41;;;;;;;19.55;3.22;;;4.00;99.90;;;;;;6240420;22;20008;-74
2022/04/09 00:56:20;;;;;;;11.25;2.28;;;4.00;99.90;;;;;;6240649;22;20011;-73
2022/04/09 00:58:55;;;;;;;15.98;3.05;;;4.00;99.90;;;;;;6239951;22;20019;-73
2022/04/09 01:01:32;;;;;;;13.45;2.65;;;4.00;99.90;;;;;;6240147;22;20022;-74
2022/04/09 01:03:58;;;;;;;13.60;2.42;;;3.90;99.90;;;;;;6240821;22;20015;-74
2022/04/09 01:06:24;;;;;;;14.43;2.70;;;4.00;99.90;;;;;;6240500;22;20016;-74
2022/04/09 01:08:50;;;;;;;9.88;2.70;;;3.90;99.90;;;;;;6239288;22;20063;-76
2022/04/09 01:11:16;;;;;;;17.20;2.83;;;3.90;99.90;;;;;;6240195;22;20035;-76
2022/04/09 01:13:44;;;;;;;16.48;2.95;;;3.90;99.90;;;;;;6240676;22;20012;-74
2022/04/09 01:16:10;;;;;;;14.88;2.70;;;3.90;99.90;;;;;;6240431;22;20012;-75
2022/04/09 01:18:36;;;;;;;16.70;2.60;;;3.90;99.90;;;;;;6240506;22;20020;-74
2022/04/09 01:21:03;;;;;;;15.07;2.78;;;3.90;99.90;;;;;;6239521;22;20015;-74
2022/04/09 01:23:30;;;;;;;9.80;3.00;;;4.00;99.90;;;;;;6240031;22;20019;-74
2022/04/09 01:25:59;;;;;;;11.63;2.70;;;4.00;99.90;;;;;;6240331;22;20016;-74
2022/04/09 01:28:26;;;;;;;15.13;3.22;;;3.90;99.90;;;;;;6239860;22;20007;-74
2022/04/09 01:30:53;;;;;;;14.25;2.80;;;3.90;99.90;;;;;;6240829;22;20015;-75
2022/04/09 01:33:20;;;;;;;13.60;2.58;;;3.90;99.90;;;;;;6215204;22;20022;-74
2022/04/09 01:35:47;;;;;;;12.45;2.40;;;3.90;99.90;;;;;;6190803;22;20012;-74
2022/04/09 01:38:13;;;;;;;16.90;3.20;;;4.00;99.90;;;;;;6239991;22;20466;-74
2022/04/09 01:40:39;;;;;;;16.45;2.90;;;3.90;99.90;;;;;;6239583;22;20008;-74
2022/04/09 01:43:05;;;;;;;18.55;3.00;;;3.90;99.90;;;;;;6240221;22;20012;-74
2022/04/09 01:45:32;;;;;;;17.73;3.42;;;3.90;99.90;;;;;;6240482;22;20012;-74
2022/04/09 01:47:58;;;;;;;15.65;2.92;;;3.90;99.90;;;;;;6240091;22;20020;-74
2022/04/09 01:50:28;;;;;;;15.80;3.08;;;4.00;99.90;;;;;;6239297;22;20019;-74
2022/04/09 01:52:54;;;;;;;10.63;2.70;;;4.00;99.90;;;;;;6240118;22;20012;-74
2022/04/09 01:55:20;;;;;;;15.43;3.05;;;4.00;99.90;;;;;;6240942;22;20026;-74
2022/04/09 01:57:47;;;;;;;15.82;3.05;;;4.00;99.90;;;;;;6240664;22;20012;-74
2022/04/09 02:00:16;;;;;;;11.85;2.92;;;4.00;99.90;;;;;;6215433;22;20362;-74
2022/04/09 02:02:42;;;;;;;14.18;2.70;;;4.00;99.90;;;;;;6215032;22;20011;-74
2022/04/09 02:05:11;;;;;;;11.68;2.55;;;4.00;99.90;;;;;;6240404;22;20591;-74
2022/04/09 02:07:38;;;;;;;8.10;2.38;;;3.90;99.90;;;;;;6240533;22;20384;-74
2022/04/09 02:10:05;;;;;;;12.93;2.60;;;3.80;99.90;;;;;;6240113;22;20086;-74
2022/04/09 02:12:35;;;;;;;10.40;2.42;;;3.80;99.90;;;;;;6240461;22;20039;-74
2022/04/09 02:15:02;;;;;;;13.93;2.53;;;3.70;99.90;;;;;;6240648;22;20008;-74
2022/04/09 02:17:28;;;;;;;7.03;2.10;;;3.70;99.90;;;;;;6240359;22;20116;-74
2022/04/09 02:19:54;;;;;;;11.43;2.38;;;3.70;99.90;;;;;;6215166;22;20047;-74
2022/04/09 02:22:20;;;;;;;10.25;2.00;;;3.70;99.90;;;;;;6215102;22;20019;-74
2022/04/09 02:24:49;;;;;;;6.60;1.60;;;3.60;99.90;;;;;;6239955;22;20015;-74
2022/04/09 02:27:14;;;;;;;7.88;1.77;;;3.60;99.90;;;;;;6239787;22;20015;-74
2022/04/09 02:29:40;;;;;;;8.38;1.75;;;3.60;99.90;;;;;;6240168;22;20026;-74
2022/04/09 02:32:06;;;;;;;10.57;1.95;;;3.50;99.90;;;;;;6215824;22;20012;-74
2022/04/09 02:34:32;;;;;;;11.02;1.80;;;3.50;99.90;;;;;;6241649;22;20078;-74
2022/04/09 02:36:57;;;;;;;7.93;1.50;;;3.50;99.90;;;;;;6241848;22;20050;-74
2022/04/09 02:39:23;;;;;;;6.82;1.58;;;3.50;99.90;;;;;;6216574;22;20016;-75
2022/04/09 02:41:52;;;;;;;9.65;1.90;;;3.40;99.90;;;;;;6240839;22;20019;-74
2022/04/09 02:44:19;;;;;;;8.43;1.90;;;3.40;99.90;;;;;;6240718;22;20457;-74
2022/04/09 02:46:48;;;;;;;7.78;1.60;;;3.40;99.90;;;;;;6241950;22;20062;-74
2022/04/09 02:49:14;;;;;;;8.30;1.80;;;3.30;99.90;;;;;;6242004;22;20008;-74
2022/04/09 02:51:40;;;;;;;7.60;1.95;;;3.40;99.90;;;;;;6241828;22;20065;-74
2022/04/09 02:54:05;;;;;;;9.02;2.00;;;3.40;99.90;;;;;;6240836;22;20084;-74
2022/04/09 02:56:31;;;;;;;9.27;1.95;;;3.40;99.90;;;;;;6240339;22;20039;-74
2022/04/09 02:58:57;;;;;;;11.93;1.80;;;3.50;99.90;;;;;;6239274;22;20072;-74
2022/04/09 03:01:24;;;;;;;11.63;1.55;;;3.50;99.90;;;;;;6238935;22;20072;-74
2022/04/09 03:03:50;;;;;;;13.57;2.45;;;3.60;99.90;;;;;;6239316;22;20024;-74
2022/04/09 03:06:16;;;;;;;9.07;1.70;;;3.50;99.90;;;;;;6239386;22;20016;-74
2022/04/09 03:08:41;;;;;;;8.70;1.65;;;3.50;99.90;;;;;;6348021;22;20082;-74
2022/04/09 03:11:08;;;;;;;7.93;1.65;;;3.50;99.90;;;;;;6215724;22;20056;-74
2022/04/09 03:13:34;;;;;;;10.32;2.03;;;3.50;99.90;;;;;;6242085;22;20091;-74
2022/04/09 03:16:00;;;;;;;8.18;2.00;;;3.50;99.90;;;;;;6243663;22;20077;-74
2022/04/09 03:18:25;;;;;;;9.48;1.90;;;3.50;99.90;;;;;;6243328;22;20031;-74
2022/04/09 03:20:51;;;;;;;10.00;1.92;;;3.60;99.90;;;;;;6243340;22;20012;-74
2022/04/09 03:23:17;;;;;;;12.18;2.13;;;3.70;99.90;;;;;;6243032;22;20012;-74
2022/04/09 03:25:43;;;;;;;10.13;2.20;;;3.70;99.90;;;;;;6243325;22;20022;-74
2022/04/09 03:28:08;;;;;;;8.32;2.33;;;3.70;99.90;;;;;;6243194;22;20456;-74
2022/04/09 03:30:34;;;;;;;7.25;2.05;;;3.70;99.90;;;;;;6242848;22;20136;-74
2022/04/09 03:33:00;;;;;;;11.02;2.03;;;3.70;99.90;;;;;;6243016;22;20023;-74
2022/04/09 03:35:26;;;;;;;7.22;1.60;;;3.70;99.90;;;;;;6243192;22;20008;-74
2022/04/09 03:37:51;;;;;;;6.78;1.67;;;3.70;99.90;;;;;;6243133;22;20023;-74
2022/04/09 03:40:17;;;;;;;9.88;1.70;;;3.60;99.90;;;;;;6243118;22;20020;-74
2022/04/09 03:42:42;;;;;;;5.95;1.45;;;3.70;99.90;;;;;;6242540;22;20011;-74
2022/04/09 03:45:09;;;;;;;9.05;1.70;;;3.60;99.90;;;;;;6243310;22;20102;-74
2022/04/09 03:47:35;;;;;;;6.43;1.35;;;3.60;99.90;;;;;;6243189;22;20011;-74
2022/04/09 03:50:01;;;;;;;8.85;1.50;;;3.60;99.90;;;;;;6242985;22;20530;-74
2022/04/09 03:52:27;;;;;;;5.22;1.48;;;3.60;99.90;;;;;;6243026;22;20012;-75
2022/04/09 03:54:53;;;;;;;8.82;1.63;;;3.60;99.90;;;;;;6243408;22;20083;-74
2022/04/09 03:57:19;;;;;;;5.72;1.23;;;3.60;99.90;;;;;;6243421;22;20098;-74
2022/04/09 03:59:45;;;;;;;10.93;1.50;;;3.60;99.90;;;;;;6216795;22;20067;-74
2022/04/09 04:02:10;;;;;;;7.70;2.05;;;3.60;99.90;;;;;;6242927;22;20091;-75
2022/04/09 04:04:37;;;;;;;7.28;1.77;;;3.60;99.90;;;;;;6243303;22;20068;-74
2022/04/09 04:07:03;;;;;;;10.48;1.60;;;3.60;99.90;;;;;;6217799;22;20020;-74
2022/04/09 04:09:29;;;;;;;12.88;1.73;;;3.60;99.90;;;;;;6242004;22;20023;-74
2022/04/09 04:11:55;;;;;;;10.52;1.40;;;3.70;99.90;;;;;;6242586;22;20060;-74
2022/04/09 04:14:20;;;;;;;11.18;1.85;;;3.60;99.90;;;;;;6242728;22;20014;-74
2022/04/09 04:16:46;;;;;;;7.93;1.77;;;3.70;99.90;;;;;;6243078;22;20400;-74
2022/04/09 04:19:12;;;;;;;6.85;1.83;;;3.70;99.90;;;;;;6243003;22;20019;-74
2022/04/09 04:21:38;;;;;;;7.10;1.50;;;3.70;99.90;;;;;;6239828;22;20344;-73
2022/04/09 04:24:05;;;;;;;8.52;1.73;;;3.70;99.90;;;;;;6242518;22;20016;-73
2022/04/09 04:26:30;;;;;;;12.00;1.55;;;3.70;99.90;;;;;;6243350;22;20023;-73
2022/04/09 04:28:56;;;;;;;6.25;1.70;;;3.60;99.90;;;;;;6241635;22;20129;-73
2022/04/09 04:31:22;;;;;;;6.40;1.40;;;3.60;99.90;;;;;;6243084;22;20028;-73
2022/04/09 04:33:47;;;;;;;7.28;2.08;;;3.60;99.90;;;;;;6242327;22;20084;-73
2022/04/09 04:36:13;;;;;;;7.85;1.30;;;3.60;99.90;;;;;;6243133;22;20054;-73
2022/04/09 04:38:39;;;;;;;7.03;2.05;;;3.60;99.90;;;;;;6243211;22;20443;-73
2022/04/09 04:41:05;;;;;;;8.40;1.33;;;3.60;99.90;;;;;;6241707;22;20028;-73
2022/04/09 04:43:35;;;;;;;6.68;1.35;;;3.60;99.90;;;;;;6242803;22;20102;-73
2022/04/09 04:46:01;;;;;;;10.05;2.13;;;3.70;99.90;;;;;;6242297;22;20023;-73
2022/04/09 04:48:26;;;;;;;5.40;1.60;;;3.50;99.90;;;;;;6270256;22;20024;-73
2022/04/09 04:50:52;;;;;;;8.05;1.60;;;3.50;99.90;;;;;;6242464;22;20012;-73
2022/04/09 04:53:18;;;;;;;6.05;1.33;;;3.40;99.90;;;;;;6242555;22;20015;-73
2022/04/09 04:55:43;;;;;;;9.20;1.90;;;3.50;99.90;;;;;;6242607;22;20011;-73
2022/04/09 04:58:09;;;;;;;10.02;2.70;;;3.50;99.90;;;;;;6243157;22;20095;-73
2022/04/09 05:00:35;;;;;;;11.13;1.60;;;3.40;99.90;;;;;;6194646;22;20019;-75
2022/04/09 05:03:01;;;;;;;5.65;1.70;;;3.40;99.90;;;;;;6244712;22;20043;-75
2022/04/09 05:05:26;;;;;;;12.43;1.92;;;3.40;99.90;;;;;;6246248;22;20474;-72
2022/04/09 05:07:53;;;;;;;9.45;1.80;;;3.50;99.90;;;;;;6219688;22;20012;-72
2022/04/09 05:10:22;;;;;;;7.95;1.65;;;3.60;99.90;;;;;;6272464;22;20023;-72
2022/04/09 05:12:48;;;;;;;10.05;1.75;;;3.70;99.90;;;;;;6272375;22;20374;-74
2022/04/09 05:15:16;;;;;;;12.38;2.17;;;3.80;99.90;;;;;;6219723;22;20782;-73
2022/04/09 05:17:42;;;;;;;9.80;1.88;;;3.80;99.90;;;;;;6245378;22;20015;-73
2022/04/09 05:20:14;;;;;;;15.27;2.15;;;3.70;99.90;;;;;;6244393;22;20015;-72
2022/04/09 05:22:43;;;;;;;5.50;1.40;;;3.80;99.90;;;;;;6272596;22;20008;-74
2022/04/09 05:25:10;;;;;;;10.68;1.83;;;3.70;99.90;;;;;;6222169;22;20012;-72
2022/04/09 05:27:37;;;;;;;9.60;1.90;;;3.70;99.90;;;;;;6272557;22;20495;-73
2022/04/09 05:30:05;;;;;;;7.63;1.67;;;3.60;99.90;;;;;;6272169;22;20455;-73
2022/04/09 05:32:31;;;;;;;7.80;1.60;;;3.60;99.90;;;;;;6195096;22;20015;-72
2022/04/09 05:34:57;;;;;;;9.10;1.65;;;3.60;99.90;;;;;;6245988;22;20008;-72
2022/04/09 05:37:23;;;;;;;7.68;1.42;;;3.60;99.90;;;;;;6220114;22;20451;-72
2022/04/09 05:39:48;;;;;;;14.25;1.98;;;3.70;99.90;;;;;;6272886;22;20015;-73
2022/04/09 05:42:14;;;;;;;5.93;1.60;;;3.70;99.90;;;;;;6273094;22;20016;-74
2022/04/09 05:44:40;;;;;;;10.32;1.70;;;3.90;99.90;;;;;;6272593;22;20037;-74
2022/04/09 05:47:06;;;;;;;7.72;1.73;;;3.90;99.90;;;;;;6194599;22;20825;-74
2022/04/09 05:49:32;;;;;;;7.97;1.58;;;4.00;99.90;;;;;;6219930;22;20020;-72
2022/04/09 05:51:58;;;;;;;6.32;1.55;;;4.10;99.90;;;;;;6245843;22;20037;-73
2022/04/09 05:54:24;;;;;;;7.55;1.77;;;4.20;99.90;;;;;;6245227;22;20039;-73
2022/04/09 05:56:50;;;;;;;9.02;1.80;;;4.30;99.90;;;;;;6270014;22;20020;-74
2022/04/09 05:59:16;;;;;;;9.20;1.50;;;4.50;99.90;;;;;;6268538;22;20343;-73
2022/04/09 06:01:42;;;;;;;8.90;1.30;;;4.70;99.90;;;;;;6240139;22;20008;-73
2022/04/09 06:04:08;;;;;;;7.88;1.42;;;4.90;99.90;;;;;;6241338;22;20019;-73
2022/04/09 06:06:33;;;;;;;9.93;1.92;;;4.90;99.90;;;;;;6241305;22;20093;-73
2022/04/09 06:08:59;;;;;;;10.82;1.73;;;5.00;99.90;;;;;;6242624;22;20389;-73
2022/04/09 06:11:25;;;;;;;9.40;1.67;;;5.00;99.90;;;;;;6238555;22;20016;-73
2022/04/09 06:13:50;;;;;;;8.70;1.67;;;4.90;99.90;;;;;;6241202;22;20090;-73
2022/04/09 06:16:16;;;;;;;7.28;1.73;;;4.90;99.90;;;;;;6242884;22;20012;-73
2022/04/09 06:18:43;;;;;;;8.63;1.65;;;4.90;99.90;;;;;;6242434;22;20019;-73
2022/04/09 06:21:09;;;;;;;10.82;2.00;;;4.90;99.90;;;;;;6241348;22;20023;-73
2022/04/09 06:23:35;;;;;;;9.57;1.85;;;4.90;99.90;;;;;;6239937;22;20095;-73
2022/04/09 06:26:02;;;;;;;10.82;1.80;;;4.90;99.90;;;;;;6268128;22;20392;-73
2022/04/09 06:28:28;;;;;;;9.68;2.25;;;4.90;99.90;;;;;;6269872;22;20012;-72
2022/04/09 06:30:54;;;;;;;8.98;2.42;;;5.00;99.90;;;;;;6217565;22;20008;-75
2022/04/09 06:33:21;;;;;;;13.82;2.00;;;5.00;99.90;;;;;;6268622;22;20016;-72
2022/04/09 06:35:48;;;;;;;12.73;2.97;;;5.10;99.90;;;;;;6271306;22;20027;-72
2022/04/09 06:38:13;;;;;;;12.52;2.58;;;5.10;99.90;;;;;;6323645;22;20016;-74
2022/04/09 06:40:39;;;;;;;16.38;2.42;;;5.20;99.90;;;;;;6241574;22;20091;-73
2022/04/09 06:43:05;;;;;;;12.63;2.20;;;5.30;99.90;;;;;;6240702;22;20332;-74
2022/04/09 06:45:31;;;;;;;10.25;2.05;;;5.30;99.90;;;;;;6241159;22;20451;-73
2022/04/09 06:47:56;;;;;;;12.65;2.97;;;5.40;99.90;;;;;;6241451;22;20036;-73
2022/04/09 06:50:22;;;;;;;8.95;1.88;;;5.40;99.90;;;;;;6239673;22;20503;-73
2022/04/09 06:52:48;;;;;;;11.88;2.00;;;5.50;99.90;;;;;;6238146;22;20019;-73
2022/04/09 06:55:13;;;;;;;11.88;2.40;;;5.60;99.90;;;;;;6239863;22;20436;-73
2022/04/09 06:57:41;;;;;;;15.88;2.30;;;5.70;99.90;;;;;;6238409;22;20328;-76
2022/04/09 07:00:11;;;;;;;14.70;2.60;;;5.80;99.90;;;;;;6238414;22;20093;-76
2022/04/09 07:02:37;;;;;;;12.23;2.20;;;5.90;99.90;;;;;;6213282;22;20577;-76
2022/04/09 07:05:02;;;;;;;10.98;1.73;;;6.10;99.90;;;;;;6242015;22;20099;-77
2022/04/09 07:07:29;;;;;;;12.60;2.00;;;6.20;99.90;;;;;;6216037;22;20095;-74
2022/04/09 07:10:04;;;;;;;10.50;2.28;;;6.40;99.90;;;;;;6244407;22;20072;-81
2022/04/09 07:12:30;;;;;;;7.57;1.90;;;6.40;99.90;;;;;;6243882;22;20014;-74
2022/04/09 07:14:56;;;;;;;11.48;2.13;;;6.40;99.90;;;;;;6241948;22;20012;-73
2022/04/09 07:17:22;;;;;;;10.57;2.00;;;6.40;99.90;;;;;;6241757;22;20080;-72
2022/04/09 07:19:47;;;;;;;11.82;1.83;;;6.40;99.90;;;;;;6243454;22;20015;-72
2022/04/09 07:22:13;;;;;;;9.55;2.05;;;6.40;99.90;;;;;;6243541;22;20020;-73
2022/04/09 07:24:39;;;;;;;8.25;1.92;;;6.30;99.90;;;;;;6271329;22;20015;-72
2022/04/09 07:27:04;;;;;;;10.23;2.05;;;6.30;99.90;;;;;;6243767;22;20087;-72
2022/04/09 07:29:30;;;;;;;11.02;2.13;;;6.20;99.90;;;;;;6243248;22;20027;-72
2022/04/09 07:31:56;;;;;;;10.02;2.10;;;6.20;99.90;;;;;;6243529;22;20019;-72
2022/04/09 07:34:22;;;;;;;16.77;2.20;;;6.40;99.90;;;;;;6197972;22;20036;-73
2022/04/09 07:36:48;;;;;;;10.13;2.33;;;6.50;99.90;;;;;;6357066;22;20059;-74
2022/04/09 07:39:13;;;;;;;11.60;2.92;;;6.60;99.90;;;;;;6275021;22;20034;-72
2022/04/09 07:41:39;;;;;;;12.93;1.95;;;6.80;99.90;;;;;;6273790;22;20019;-72
2022/04/09 07:44:05;;;;;;;13.05;2.28;;;6.90;99.90;;;;;;6275207;22;20022;-71
2022/04/09 07:46:31;;;;;;;10.85;2.25;;;6.90;99.90;;;;;;6275039;22;20015;-71
2022/04/09 07:48:57;;;;;;;11.25;2.20;;;7.00;99.90;;;;;;6196738;22;20435;-73
2022/04/09 07:51:22;;;;;;;9.82;2.25;;;7.00;99.90;;;;;;6243037;22;20012;-73
2022/04/09 07:53:48;;;;;;;13.00;2.20;;;7.10;99.90;;;;;;6270187;22;20012;-72
2022/04/09 07:56:14;;;;;;;11.80;2.00;;;7.30;99.90;;;;;;6221881;22;20014;-72
2022/04/09 07:58:42;;;;;;;9.48;1.83;;;7.40;99.90;;;;;;6221382;22;20354;-72
2022/04/09 08:01:09;;;;;;;11.93;2.15;;;7.50;99.90;;;;;;6247593;22;20060;-73
2022/04/09 08:03:34;;;;;;;11.95;2.28;;;7.50;99.90;;;;;;6247531;22;20003;-71
2022/04/09 08:06:00;;;;;;;12.13;1.90;;;7.60;99.90;;;;;;6222061;22;20023;-72
2022/04/09 08:08:25;;;;;;;11.43;2.00;;;7.70;99.90;;;;;;6197478;22;20019;-72
2022/04/09 08:10:51;;;;;;;8.75;2.03;;;7.80;99.90;;;;;;6198272;22;20091;-73
2022/04/09 08:13:18;;;;;;;10.55;1.65;;;7.90;99.90;;;;;;6222875;22;20033;-72
2022/04/09 08:15:44;;;;;;;9.15;1.80;;;8.00;99.90;;;;;;6275673;22;20015;-72
2022/04/09 08:18:11;;;;;;;7.22;1.60;;;8.00;99.90;;;;;;6249351;22;20027;-72
2022/04/09 08:20:37;;;;;;;15.55;2.92;;;8.00;99.90;;;;;;6248191;22;20011;-72
2022/04/09 08:23:04;;;;;;;17.08;3.97;;;8.10;99.90;;;;;;6275252;22;20026;-73
2022/04/09 08:25:30;;;;;;;11.13;2.50;;;8.30;99.90;;;;;;6222440;22;20036;-72
2022/04/09 08:27:55;;;;;;;16.30;5.10;;;8.40;99.90;;;;;;6222196;22;20078;-72
2022/04/09 08:30:22;;;;;;;11.95;2.63;;;8.50;99.90;;;;;;6249637;22;20041;-73
2022/04/09 08:32:55;;;;;;;13.90;3.80;;;8.50;99.90;;;;;;6222635;22;20004;-73
2022/04/09 08:35:22;;;;;;;8.68;2.05;;;8.50;99.90;;;;;;6198973;22;20014;-73
2022/04/09 08:37:56;;;;;;;7.68;1.38;;;8.50;99.90;;;;;;6221826;22;20036;-74
2022/04/09 08:40:23;;;;;;;6.63;1.75;;;8.50;99.90;;;;;;6221625;22;20039;-72
2022/04/09 08:42:49;;;;;;;4.00;1.10;;;8.70;99.90;;;;;;6248266;22;20023;-71
2022/04/09 08:45:15;;;;;;;9.02;1.70;;;8.90;99.90;;;;;;6247912;22;20500;-72
2022/04/09 08:47:43;;;;;;;7.38;1.63;;;9.10;99.90;;;;;;6275358;22;20014;-72
2022/04/09 08:50:14;;;;;;;9.02;1.50;;;9.30;99.90;;;;;;6247765;22;20019;-72
2022/04/09 08:52:41;;;;;;;15.93;4.22;;;9.40;99.90;;;;;;6221861;22;20272;-72
2022/04/09 08:55:09;;;;;;;9.52;1.67;;;9.40;99.90;;;;;;6328715;22;20059;-71
2022/04/09 08:57:35;;;;;;;8.52;1.27;;;9.30;99.90;;;;;;6274584;22;20015;-71
2022/04/09 09:00:13;;;;;;;5.05;1.30;;;9.00;99.90;;;;;;6196805;22;20095;-71
2022/04/09 09:02:53;;;;;;;9.80;1.75;;;9.10;99.90;;;;;;6330264;22;20071;-71
2022/04/09 09:05:40;;;;;;;7.05;1.40;;;9.30;99.90;;;;;;6196085;22;20057;-71
2022/04/09 09:08:07;;;;;;;5.30;1.30;;;9.40;99.90;;;;;;6221534;22;20505;-71
2022/04/09 09:10:34;;;;;;;5.90;1.42;;;9.50;99.90;;;;;;6220815;22;20043;-71
2022/04/09 09:13:11;;;;;;;9.48;1.80;;;9.50;99.90;;;;;;6246274;22;20241;-71
2022/04/09 09:15:55;;;;;;;5.90;1.40;;;9.50;99.90;;;;;;6221137;22;20022;-71
2022/04/09 09:18:22;;;;;;;7.05;1.48;;;9.50;99.90;;;;;;6246420;22;20052;-71
2022/04/09 09:20:56;;;;;;;6.05;1.30;;;9.60;99.90;;;;;;6221693;22;20025;-71
2022/04/09 09:23:24;;;;;;;8.73;1.52;;;9.70;99.90;;;;;;6220358;22;20039;-71
2022/04/09 09:25:51;;;;;;;8.27;1.38;;;9.80;99.90;;;;;;6220540;22;20481;-72
2022/04/09 09:28:31;;;;;;;9.73;1.52;;;9.90;99.90;;;;;;6220783;22;20443;-71
2022/04/09 09:30:58;;;;;;;8.57;1.58;;;9.80;99.90;;;;;;6246456;22;20016;-71
2022/04/09 09:33:25;;;;;;;11.95;1.80;;;9.90;99.90;;;;;;6243625;22;20082;-71
2022/04/09 09:35:59;;;;;;;4.90;1.38;;;10.10;99.90;;;;;;6220459;22;20451;-78
2022/04/09 09:39:10;;;;;;;5.65;1.40;;;10.20;99.90;;;;;;6250428;22;20309;-74
2022/04/09 09:41:46;;;;;;;5.93;1.27;;;10.20;99.90;;;;;;6243160;22;20012;-72
2022/04/09 09:44:12;;;;;;;6.22;1.20;;;10.30;99.90;;;;;;6244231;22;20485;-71
2022/04/09 09:46:38;;;;;;;7.95;1.52;;;10.10;99.90;;;;;;6217912;22;20008;-73
2022/04/09 09:49:04;;;;;;;6.32;1.80;;;9.90;99.90;;;;;;6216266;22;20076;-73
2022/04/09 09:51:29;;;;;;;7.38;2.17;;;10.10;99.90;;;;;;6215361;22;20027;-72
2022/04/09 09:54:10;;;;;;;9.90;2.28;;;10.30;99.90;;;;;;6240059;22;20011;-73
2022/04/09 09:56:39;;;;;;;7.50;1.50;;;10.40;99.90;;;;;;6237907;22;20627;-73
2022/04/09 09:59:13;;;;;;;9.68;1.90;;;10.20;99.90;;;;;;6266477;22;20094;-73
2022/04/09 10:01:40;;;;;;;7.50;1.60;;;9.70;99.90;;;;;;6238875;22;20016;-72
2022/04/09 10:04:08;;;;;;;8.32;1.80;;;9.30;99.90;;;;;;6240688;22;20024;-72
2022/04/09 10:06:35;;;;;;;5.93;1.60;;;9.10;99.90;;;;;;6266555;22;20067;-73
2022/04/09 10:09:05;;;;;;;10.20;1.80;;;8.90;99.90;;;;;;6269264;22;20020;-72
2022/04/09 10:11:37;;;;;;;4.93;1.30;;;9.10;99.90;;;;;;6242290;22;20016;-73
2022/04/09 10:14:04;;;;;;;7.57;1.63;;;9.50;99.90;;;;;;6242484;22;20019;-73
2022/04/09 10:16:36;;;;;;;7.18;1.63;;;10.10;99.90;;;;;;6242389;22;20055;-73
2022/04/09 10:19:04;;;;;;;11.43;1.65;;;10.30;99.90;;;;;;6240694;22;20031;-73
2022/04/09 10:21:32;;;;;;;6.40;1.58;;;10.40;99.90;;;;;;6237870;22;20420;-73
2022/04/09 10:24:00;;;;;;;8.38;1.45;;;10.20;99.30;;;;;;6240004;22;20012;-73
2022/04/09 10:26:28;;;;;;;4.32;1.40;;;9.90;99.90;;;;;;6238979;22;20061;-72
2022/04/09 10:29:04;;;;;;;7.07;1.60;;;9.50;99.90;;;;;;6239503;22;20024;-73
2022/04/09 10:31:30;;;;;;;6.15;1.42;;;9.10;99.90;;;;;;6266410;22;20012;-73
2022/04/09 10:33:58;;;;;;;9.13;1.60;;;8.90;99.90;;;;;;6239970;22;20019;-72
2022/04/09 10:36:45;;;;;;;7.95;1.52;;;8.80;99.90;;;;;;6266460;22;20026;-72
2022/04/09 10:39:25;;;;;;;9.65;1.40;;;8.50;99.90;;;;;;6238461;22;20020;-73
2022/04/09 10:41:51;;;;;;;10.45;1.65;;;8.50;99.90;;;;;;6239229;22;20450;-74
2022/04/09 10:44:42;;;;;;;7.95;1.85;;;8.40;99.90;;;;;;6238212;22;20145;-73
2022/04/09 10:47:08;;;;;;;10.18;2.35;;;8.40;99.90;;;;;;6214404;22;20012;-73
2022/04/09 10:49:34;;;;;;;8.98;1.95;;;8.70;99.90;;;;;;6265602;22;20038;-70
2022/04/09 10:52:14;;;;;;;6.72;1.40;;;8.70;99.90;;;;;;6239422;22;20119;-71
2022/04/09 10:54:58;;;;;;;4.30;0.98;;;8.50;99.90;;;;;;6242988;22;20031;-72
2022/04/09 10:57:25;;;;;;;2.58;0.80;;;8.30;99.90;;;;;;6223201;22;20019;-75
2022/04/09 10:59:57;;;;;;;2.53;0.63;;;7.70;99.90;;;;;;6197208;22;20020;-74
2022/04/09 11:02:24;;;;;;;1.20;0.63;;;7.00;99.90;;;;;;6223016;22;20010;-74
2022/04/09 11:04:50;;;;;;;4.40;0.80;;;6.50;99.90;;;;;;6249488;22;20012;-77
2022/04/09 11:07:19;;;;;;;2.75;0.75;;;6.00;99.90;;;;;;6203102;22;20018;-75
2022/04/09 11:09:59;;;;;;;5.10;2.67;;;5.80;99.90;;;;;;6280894;22;20016;-75
2022/04/09 11:12:29;;;;;;;5.55;1.48;;;5.70;99.90;;;;;;6249435;22;20012;-74
2022/04/09 11:15:00;;;;;;;4.28;1.02;;;5.90;99.90;;;;;;6278478;22;20004;-74
2022/04/09 11:17:30;;;;;;;7.93;3.63;;;6.20;99.90;;;;;;6250797;22;20064;-73
2022/04/09 11:20:02;;;;;;;12.10;7.18;;;6.60;99.90;;;;;;6249490;22;20020;-74
2022/04/09 11:22:40;;;;;;;7.75;2.08;;;6.90;99.90;;;;;;6251497;22;20015;-73
2022/04/09 11:25:09;;;;;;;6.65;1.75;;;7.10;99.90;;;;;;6250148;22;20133;-74
2022/04/09 11:27:34;;;;;;;4.90;1.33;;;7.30;99.90;;;;;;6248738;22;20016;-73
2022/04/09 11:30:01;;;;;;;7.03;1.35;;;7.70;99.90;;;;;;6247669;22;20052;-74
2022/04/09 11:32:27;;;;;;;10.48;1.67;;;8.00;99.90;;;;;;6248912;22;20016;-77
2022/04/09 11:34:58;;;;;;;7.53;1.60;;;8.10;99.90;;;;;;6276584;22;20347;-75
2022/04/09 11:37:30;;;;;;;6.88;1.77;;;8.30;99.90;;;;;;6249506;22;20012;-73
2022/04/09 11:39:58;;;;;;;10.15;2.53;;;8.50;99.90;;;;;;6225448;22;20026;-74
2022/04/09 11:42:24;;;;;;;9.50;1.90;;;8.70;99.90;;;;;;6251999;22;20026;-74
2022/04/09 11:44:50;;;;;;;13.52;2.17;;;8.70;99.90;;;;;;6226994;22;20019;-74
2022/04/09 11:47:23;;;;;;;9.82;2.22;;;8.60;99.90;;;;;;6226628;22;20082;-74
2022/04/09 11:49:50;;;;;;;6.55;1.30;;;8.20;99.90;;;;;;6281332;22;20051;-73
2022/04/09 11:52:26;;;;;;;4.78;1.00;;;8.10;99.90;;;;;;6229022;22;20076;-75
2022/04/09 11:54:53;;;;;;;7.82;1.83;;;8.10;99.90;;;;;;6281575;22;20008;-73
2022/04/09 11:57:19;;;;;;;8.57;1.73;;;8.20;99.90;;;;;;6253496;22;20091;-75
2022/04/09 11:59:53;;;;;;;5.47;1.40;;;8.50;99.90;;;;;;6250961;22;20016;-73
2022/04/09 12:02:25;;;;;;;5.00;1.42;;;8.60;99.90;;;;;;6226496;22;20016;-74
2022/04/09 12:04:51;;;;;;;6.18;1.30;;;8.80;99.90;;;;;;6245325;22;20049;-75
2022/04/09 12:07:18;;;;;;;6.47;1.30;;;8.60;99.90;;;;;;6240512;22;20019;-75
2022/04/09 12:09:45;;;;;;;5.97;1.20;;;8.60;99.90;;;;;;6239245;22;20069;-75
2022/04/09 12:12:11;;;;;;;3.22;1.13;;;8.70;99.90;;;;;;6240521;22;20027;-75
2022/04/09 12:14:37;;;;;;;4.45;1.10;;;9.00;99.90;;;;;;6240169;22;20324;-75
2022/04/09 12:17:13;;;;;;;4.80;0.95;;;9.00;99.90;;;;;;6240246;22;20019;-74
2022/04/09 12:19:43;;;;;;;5.53;1.40;;;8.70;99.90;;;;;;6240384;22;20091;-75
2022/04/09 12:22:22;;;;;;;4.63;1.15;;;8.50;99.90;;;;;;6239582;22;20087;-74
2022/04/09 12:24:50;;;;;;;5.82;1.50;;;8.70;99.90;;;;;;6240775;22;20447;-74
2022/04/09 12:27:16;;;;;;;8.23;1.67;;;8.90;99.90;;;;;;6239494;22;20012;-74
2022/04/09 12:29:55;;;;;;;7.47;1.60;;;9.20;99.90;;;;;;6239357;22;20328;-74
2022/04/09 12:32:24;;;;;;;6.00;1.27;;;9.60;99.90;;;;;;6240497;22;20444;-75
2022/04/09 12:34:55;;;;;;;7.65;1.65;;;9.80;99.90;;;;;;6214599;22;20455;-74
2022/04/09 12:37:22;;;;;;;8.43;1.40;;;9.90;99.90;;;;;;6238979;22;20064;-74
2022/04/09 12:39:48;;;;;;;4.10;1.00;;;9.60;99.90;;;;;;6239946;22;20039;-75
2022/04/09 12:42:15;;;;;;;4.50;1.05;;;9.20;99.90;;;;;;6239635;22;20040;-75
2022/04/09 12:44:43;;;;;;;6.47;1.00;;;8.10;99.90;;;;;;6239717;22;20019;-74
2022/04/09 12:47:08;;;;;;;4.85;1.40;;;7.50;99.90;;;;;;6240019;22;20012;-75
2022/04/09 12:49:36;;;;;;;6.47;1.98;;;6.90;99.90;;;;;;6238016;22;20026;-74
2022/04/09 12:52:03;;;;;;;4.53;1.10;;;6.80;99.90;;;;;;6239229;22;20447;-75
2022/04/09 12:54:31;;;;;;;6.50;1.50;;;6.90;99.90;;;;;;6214033;22;20190;-75